Airfield :
LOGIN :

Register | Disclaimer

   EN    FR    IT 

 










Legend :    VFR   Marginal VFR   IFR   Intensive IFR   Very Intensive IFR
Visi :
Ceiling :
>= 8 km
>= 3000ft
5 to 8 km
1000 to 3000 ft
1500m to 5 km
500 to 1000 ft
800 to 1500m
200 to 500 ft
< 800m
< 200 ft
Symbols :   Thunderstorms  Fog  Heavy snow  Heavy precipitations  Wind > 20 kt
SIGMETs :     Misc.  Thunderstorms  Icing  Turbulence  Mountain Waves  Volcanic Ashes






- Airport Elevation : 45 ft
- IATA code : CEG


EGNR - Hawarden Chester

CURRENT METAR :
  • 071320Z 17008KT 120V230 9999 FEW023 SCT040 11/06 Q1009

EXPIRED METARs :
  • 071250Z 20009KT 160V230 9999 FEW022 SCT041 11/06 Q1009
  • 071220Z 18009KT 120V280 9999 FEW022 BKN042 10/06 Q1010
  • 071150Z 17008KT 9999 FEW022 BKN041 11/06 Q1010
  • 071120Z 21008KT 160V240 9999 FEW022 BKN044 10/06 Q1011
  • 071050Z 22009KT 9999 FEW022 SCT040 10/06 Q1011

TAF AMD TAF EGNR
Valid from the 07 at 12:00 until the 07 at 19:00 UTC


071215Z 0712/0719 17008KT 9999 SCT020
BECMG 0712/0715 23011KT
TEMPO 0712/0719 23020G30KT



MET'MAP, your aeronautical weather chart ! - Copyright ORBIFLY December 2007 - Disclaimer

ORBIFLY MET'MAP TEAM :

Programming & Development : Alexandra Zaïnal
Concept & original design : Baudouin d'Aumeries
Assistance for programming : Marc-Olivier Méhu
Technical & hardware support : Manuel Goepfert

Contact : metmap@orbifly.com




SOURCES & CREDITS :

   NOAA